Time;durP1;ratioP1;P1;durP2;ratioP2;P2;SDS_P1;SDS_P2;PMS_P1;PMS_P2;Temp;Humidity;BMP_temperature;BMP_pressure;BME280_temperature;BME280_humidity;BME280_pressure;Samples;Min_cycle;Max_cycle;Signal;HPM_P1;HPM_P2
2022/01/10 00:02:07;;;;;;;16.08;8.38;;;2.10;99.90;;;;;;5039154;28;20021;-61
2022/01/10 00:04:32;;;;;;;18.40;9.00;;;2.10;99.90;;;;;;5038736;28;20030;-61
2022/01/10 00:06:58;;;;;;;18.02;8.63;;;2.10;99.90;;;;;;5042426;28;20574;-61
2022/01/10 00:09:23;;;;;;;17.88;9.85;;;2.10;99.90;;;;;;5040631;28;20048;-61
2022/01/10 00:11:49;;;;;;;21.92;11.00;;;2.00;99.90;;;;;;5039154;28;20394;-61
2022/01/10 00:14:14;;;;;;;19.42;11.45;;;2.00;99.90;;;;;;5034938;28;20037;-61
2022/01/10 00:16:41;;;;;;;23.85;11.40;;;2.00;99.90;;;;;;5038897;28;20032;-61
2022/01/10 00:19:06;;;;;;;26.40;12.90;;;1.90;99.90;;;;;;5037723;28;20071;-61
2022/01/10 00:21:32;;;;;;;25.48;12.05;;;1.90;99.90;;;;;;5040591;28;20541;-61
2022/01/10 00:23:58;;;;;;;16.88;9.93;;;1.90;99.90;;;;;;5040339;28;20029;-61
2022/01/10 00:26:24;;;;;;;15.63;8.80;;;1.90;99.90;;;;;;5035044;28;20477;-61
2022/01/10 00:28:49;;;;;;;15.85;8.93;;;1.90;99.90;;;;;;5038962;28;20060;-61
2022/01/10 00:31:15;;;;;;;14.50;7.70;;;1.90;99.90;;;;;;5038271;28;20025;-61
2022/01/10 00:33:40;;;;;;;12.65;7.78;;;2.00;99.90;;;;;;5037748;28;20017;-61
2022/01/10 00:36:06;;;;;;;15.05;8.30;;;2.00;99.90;;;;;;5033105;28;20040;-61
2022/01/10 00:38:31;;;;;;;10.45;7.20;;;2.00;99.90;;;;;;5045899;28;20059;-61
2022/01/10 00:40:59;;;;;;;14.57;6.72;;;2.10;99.90;;;;;;5042889;28;20022;-61
2022/01/10 00:43:33;;;;;;;10.93;7.15;;;2.10;99.90;;;;;;5034865;28;20029;-61
2022/01/10 00:45:59;;;;;;;14.65;8.10;;;2.00;99.90;;;;;;5039989;28;20068;-61
2022/01/10 00:48:25;;;;;;;20.25;9.02;;;2.00;99.90;;;;;;5037273;28;20507;-61
2022/01/10 00:50:50;;;;;;;23.42;10.73;;;2.00;99.90;;;;;;5032006;28;20100;-61
2022/01/10 00:53:16;;;;;;;18.50;11.70;;;1.90;99.90;;;;;;5032808;28;20489;-61
2022/01/10 00:55:42;;;;;;;22.85;12.18;;;1.90;99.90;;;;;;5045480;28;20071;-61
2022/01/10 00:58:07;;;;;;;24.40;12.88;;;1.80;99.90;;;;;;5036521;28;20037;-60
2022/01/10 01:00:33;;;;;;;19.25;12.63;;;1.80;99.90;;;;;;5039217;28;20033;-61
2022/01/10 01:02:58;;;;;;;21.05;13.82;;;1.80;99.90;;;;;;5037634;28;20156;-61
2022/01/10 01:05:26;;;;;;;22.77;13.25;;;1.70;99.90;;;;;;5044544;28;20052;-61
2022/01/10 01:07:52;;;;;;;19.60;11.88;;;1.80;99.90;;;;;;5037610;28;20025;-61
2022/01/10 01:13:18;;;;;;;23.08;12.15;;;1.80;99.90;;;;;;5040260;28;20029;-60
2022/01/10 01:16:08;;;;;;;23.23;13.85;;;1.80;99.90;;;;;;5041553;28;20069;-61
2022/01/10 01:24:02;;;;;;;28.30;15.88;;;1.60;99.90;;;;;;5039713;28;20031;-61
2022/01/10 01:26:29;;;;;;;32.22;17.08;;;1.50;99.90;;;;;;5035096;28;20028;-60
2022/01/10 01:28:54;;;;;;;28.58;16.58;;;1.50;99.90;;;;;;5035037;28;20098;-62
2022/01/10 01:31:20;;;;;;;26.60;14.00;;;1.50;99.90;;;;;;5042104;28;20488;-61
2022/01/10 01:33:46;;;;;;;23.30;13.10;;;1.50;99.90;;;;;;5038760;28;20021;-61
2022/01/10 01:36:12;;;;;;;18.90;11.75;;;1.50;99.90;;;;;;5036472;28;20036;-61
2022/01/10 01:38:39;;;;;;;24.33;13.98;;;1.50;99.90;;;;;;5036383;28;20500;-61
2022/01/10 01:43:50;;;;;;;16.60;11.15;;;1.40;99.90;;;;;;5039931;28;20047;-60
2022/01/10 01:46:17;;;;;;;18.83;11.15;;;1.40;99.90;;;;;;5043035;28;20036;-61
2022/01/10 01:48:42;;;;;;;16.88;9.88;;;1.30;99.90;;;;;;5030749;28;20053;-61
2022/01/10 01:51:08;;;;;;;21.48;13.15;;;1.40;99.90;;;;;;5034398;28;20468;-61
2022/01/10 01:53:36;;;;;;;23.40;13.50;;;1.40;99.90;;;;;;5038714;28;20021;-60
2022/01/10 01:56:07;;;;;;;24.25;13.13;;;1.30;99.90;;;;;;5030481;28;20489;-60
2022/01/10 01:58:34;;;;;;;22.77;13.65;;;1.30;99.90;;;;;;5040530;28;20025;-60
2022/01/10 02:01:00;;;;;;;17.60;10.90;;;1.30;99.90;;;;;;5036952;28;20092;-60
2022/01/10 02:03:25;;;;;;;15.88;9.73;;;1.30;99.90;;;;;;5034476;28;20056;-61
2022/01/10 02:05:51;;;;;;;17.35;9.70;;;1.30;99.90;;;;;;5040123;28;20029;-61
2022/01/10 02:08:17;;;;;;;15.85;11.05;;;1.30;99.90;;;;;;5038395;28;20104;-60
2022/01/10 02:10:42;;;;;;;16.40;9.88;;;1.30;99.90;;;;;;5041653;28;20106;-60
2022/01/10 02:13:08;;;;;;;18.17;10.48;;;1.30;99.90;;;;;;5046599;28;20151;-61
2022/01/10 02:15:46;;;;;;;17.52;10.98;;;1.20;99.90;;;;;;5040508;28;20033;-60
2022/01/10 02:18:17;;;;;;;14.13;10.07;;;1.20;99.90;;;;;;5040903;28;20039;-61
2022/01/10 02:20:43;;;;;;;25.67;15.05;;;1.10;99.90;;;;;;5041385;28;20084;-60
2022/01/10 02:23:09;;;;;;;28.45;14.85;;;1.00;99.90;;;;;;5037788;28;20021;-60
2022/01/10 02:25:35;;;;;;;28.70;15.55;;;0.90;99.90;;;;;;5053441;28;20032;-60
2022/01/10 02:28:01;;;;;;;17.35;12.23;;;0.80;99.90;;;;;;5037423;28;20057;-60
2022/01/10 02:30:27;;;;;;;20.30;13.35;;;0.80;99.90;;;;;;5033548;28;20509;-60
2022/01/10 02:32:56;;;;;;;24.73;15.65;;;0.80;99.90;;;;;;5045248;28;20428;-60
2022/01/10 02:35:27;;;;;;;26.45;15.88;;;0.80;99.90;;;;;;5037845;28;20029;-61
2022/01/10 02:37:54;;;;;;;26.20;16.10;;;0.70;99.90;;;;;;5056055;28;20460;-60
2022/01/10 02:40:22;;;;;;;27.67;16.50;;;0.70;99.90;;;;;;5040619;28;20026;-60
2022/01/10 02:42:49;;;;;;;20.15;12.32;;;0.70;99.90;;;;;;5039096;28;20014;-60
2022/01/10 02:45:16;;;;;;;16.50;11.18;;;0.70;99.90;;;;;;5041458;28;20078;-60
2022/01/10 02:47:41;;;;;;;19.60;10.32;;;0.70;99.90;;;;;;5035323;28;20037;-61
2022/01/10 02:50:08;;;;;;;16.77;9.90;;;0.70;99.90;;;;;;5037801;28;20032;-60
2022/01/10 02:52:34;;;;;;;16.25;9.75;;;0.80;99.90;;;;;;5039704;28;20060;-61
2022/01/10 02:55:01;;;;;;;16.58;10.43;;;0.90;99.90;;;;;;5040969;28;20033;-60
2022/01/10 02:57:28;;;;;;;19.73;11.23;;;1.00;99.90;;;;;;5038482;28;20496;-61
2022/01/10 02:59:54;;;;;;;21.65;13.30;;;1.00;99.90;;;;;;5039170;28;20024;-60
2022/01/10 03:02:23;;;;;;;26.23;14.50;;;1.00;99.90;;;;;;5034810;28;20397;-60
2022/01/10 03:04:48;;;;;;;27.17;15.73;;;1.00;99.90;;;;;;5045818;28;20496;-60
2022/01/10 03:07:18;;;;;;;24.25;13.73;;;1.00;99.90;;;;;;5048136;28;20075;-61
2022/01/10 03:09:43;;;;;;;21.13;14.23;;;0.90;99.90;;;;;;5037676;28;20032;-60
2022/01/10 03:12:09;;;;;;;20.92;14.38;;;0.90;99.90;;;;;;5039755;28;20037;-60
2022/01/10 03:14:38;;;;;;;17.55;11.57;;;0.90;99.90;;;;;;5034335;28;20067;-60
2022/01/10 03:17:04;;;;;;;19.73;10.98;;;0.90;99.90;;;;;;5039707;28;20328;-60
2022/01/10 03:19:29;;;;;;;15.40;9.38;;;0.90;99.90;;;;;;5037103;28;20068;-60
2022/01/10 03:21:55;;;;;;;16.48;9.30;;;1.00;99.90;;;;;;5031145;28;20108;-60
2022/01/10 03:24:20;;;;;;;27.30;14.10;;;1.00;99.90;;;;;;5037766;28;20075;-61
2022/01/10 03:26:46;;;;;;;22.25;12.98;;;1.00;99.90;;;;;;5035979;28;20029;-60
2022/01/10 03:29:11;;;;;;;19.15;11.77;;;1.00;99.90;;;;;;5031807;28;20401;-60
2022/01/10 03:31:37;;;;;;;21.40;12.68;;;1.00;99.90;;;;;;5028852;28;20473;-60
2022/01/10 03:34:06;;;;;;;29.27;11.15;;;0.90;99.90;;;;;;5034223;28;20393;-60
2022/01/10 03:36:32;;;;;;;17.05;13.07;;;0.80;99.90;;;;;;5028635;28;20385;-60
2022/01/10 03:38:57;;;;;;;21.17;14.52;;;0.70;99.90;;;;;;5037223;28;20028;-60
2022/01/10 03:41:23;;;;;;;22.52;15.45;;;0.60;99.90;;;;;;5034062;28;20066;-60
2022/01/10 03:43:48;;;;;;;25.70;15.98;;;0.60;99.90;;;;;;5040232;28;20481;-60
2022/01/10 03:46:14;;;;;;;21.92;14.18;;;0.50;99.90;;;;;;5033179;28;20117;-60
2022/01/10 03:48:40;;;;;;;15.90;11.95;;;0.50;99.90;;;;;;5037190;28;20067;-61
2022/01/10 03:51:05;;;;;;;16.90;11.82;;;0.60;99.90;;;;;;5037303;28;20080;-60
2022/01/10 03:53:31;;;;;;;21.50;12.80;;;0.60;99.90;;;;;;5030161;28;20544;-60
2022/01/10 03:55:56;;;;;;;19.98;13.18;;;0.60;99.90;;;;;;5035649;28;20052;-60
2022/01/10 03:58:22;;;;;;;19.55;12.60;;;0.60;99.90;;;;;;5031308;28;20059;-61
2022/01/10 04:00:48;;;;;;;17.40;11.35;;;0.70;99.90;;;;;;5031403;28;20071;-61
2022/01/10 04:03:13;;;;;;;15.73;9.73;;;0.70;99.90;;;;;;5032775;28;20028;-61
2022/01/10 04:05:39;;;;;;;16.42;10.35;;;0.70;99.90;;;;;;5039215;28;20021;-61
2022/01/10 04:08:04;;;;;;;21.33;11.73;;;0.80;99.90;;;;;;5028657;28;20367;-60
2022/01/10 04:10:30;;;;;;;16.83;11.30;;;0.80;99.90;;;;;;5027278;28;20564;-60
2022/01/10 04:12:56;;;;;;;16.00;9.38;;;0.80;99.90;;;;;;5034051;28;20035;-61
2022/01/10 04:15:21;;;;;;;14.18;9.43;;;0.80;99.90;;;;;;5033669;28;20049;-60
2022/01/10 04:17:56;;;;;;;16.67;10.60;;;0.80;99.90;;;;;;5038342;28;20055;-61
2022/01/10 04:20:22;;;;;;;29.33;16.48;;;0.90;99.90;;;;;;5028420;28;20032;-61
2022/01/10 04:22:48;;;;;;;25.98;16.15;;;0.80;99.90;;;;;;5029553;28;20401;-61
2022/01/10 04:25:13;;;;;;;22.55;13.75;;;0.80;99.90;;;;;;5037668;28;20025;-60
2022/01/10 04:27:39;;;;;;;19.58;13.30;;;0.70;99.90;;;;;;5032214;28;20044;-60
2022/01/10 04:30:05;;;;;;;30.70;16.17;;;0.70;99.90;;;;;;5039245;28;20033;-60
2022/01/10 04:32:32;;;;;;;28.15;16.40;;;0.70;99.90;;;;;;5033925;28;20060;-60
2022/01/10 04:34:58;;;;;;;20.90;13.88;;;0.70;99.90;;;;;;5036726;28;20103;-60
2022/01/10 04:37:25;;;;;;;17.90;12.55;;;0.70;99.90;;;;;;5031396;28;20434;-61
2022/01/10 04:39:50;;;;;;;21.70;13.00;;;0.80;99.90;;;;;;5036108;28;20107;-60
2022/01/10 04:42:16;;;;;;;26.23;14.43;;;0.80;99.90;;;;;;5029751;28;20068;-60
2022/01/10 04:44:42;;;;;;;24.17;15.20;;;0.80;99.90;;;;;;5030023;28;20022;-60
2022/01/10 04:47:08;;;;;;;30.80;16.48;;;0.80;99.90;;;;;;5041706;28;20033;-60
2022/01/10 04:49:58;;;;;;;28.85;16.23;;;0.80;99.90;;;;;;5051548;28;20033;-60
2022/01/10 04:52:19;;;;;;;24.63;15.35;;;0.80;99.90;;;;;;5027974;28;20033;-60
2022/01/10 04:54:45;;;;;;;32.03;19.33;;;0.90;99.90;;;;;;5039335;28;20040;-61
2022/01/10 04:57:10;;;;;;;41.42;21.70;;;0.80;99.90;;;;;;5034200;28;20481;-61
2022/01/10 04:59:36;;;;;;;30.70;19.55;;;0.80;99.90;;;;;;5037517;28;20029;-60
2022/01/10 05:02:02;;;;;;;27.13;16.42;;;0.80;99.90;;;;;;5036908;28;20033;-60
2022/01/10 05:04:27;;;;;;;26.30;15.68;;;0.80;99.90;;;;;;5031571;28;20492;-60
2022/01/10 05:06:52;;;;;;;36.85;19.80;;;0.80;99.90;;;;;;5034363;28;20500;-61
2022/01/10 05:09:18;;;;;;;37.00;21.73;;;0.90;99.90;;;;;;5033896;28;20090;-60
2022/01/10 05:11:45;;;;;;;36.05;21.42;;;0.90;99.90;;;;;;5038073;28;20029;-60
2022/01/10 05:14:11;;;;;;;41.65;22.42;;;0.90;99.90;;;;;;5036889;28;20057;-59
2022/01/10 05:16:38;;;;;;;31.52;20.23;;;0.90;99.90;;;;;;5035842;28;20025;-61
2022/01/10 05:19:04;;;;;;;31.15;20.30;;;0.90;99.90;;;;;;5039062;28;20020;-60
2022/01/10 05:21:29;;;;;;;37.97;20.75;;;0.90;99.90;;;;;;5036340;28;20029;-60
2022/01/10 05:23:55;;;;;;;33.80;21.73;;;0.90;99.90;;;;;;5039258;28;20080;-60
2022/01/10 05:26:20;;;;;;;34.75;19.25;;;0.90;99.90;;;;;;5039264;28;20021;-60
2022/01/10 05:28:46;;;;;;;39.05;22.63;;;1.00;99.90;;;;;;5031839;28;20033;-61
2022/01/10 05:31:11;;;;;;;36.95;22.48;;;1.00;99.90;;;;;;5034915;28;20022;-60
2022/01/10 05:33:37;;;;;;;45.75;22.15;;;1.00;99.90;;;;;;5034802;28;20030;-60
2022/01/10 05:36:03;;;;;;;42.70;23.00;;;1.10;99.90;;;;;;5034864;28;20047;-60
2022/01/10 05:38:28;;;;;;;44.63;24.23;;;1.10;99.90;;;;;;5034610;28;20025;-60
2022/01/10 05:40:54;;;;;;;36.53;21.85;;;1.10;99.90;;;;;;5034882;28;20047;-60
2022/01/10 05:43:20;;;;;;;33.80;21.30;;;1.10;99.90;;;;;;5034958;28;20025;-61
2022/01/10 05:45:45;;;;;;;43.45;24.25;;;1.10;99.90;;;;;;5034797;28;20022;-60
2022/01/10 05:48:21;;;;;;;40.38;23.35;;;1.10;99.90;;;;;;5050102;28;20113;-60
2022/01/10 05:50:46;;;;;;;38.05;23.00;;;1.10;99.90;;;;;;5034803;28;20060;-60
2022/01/10 05:53:12;;;;;;;43.35;23.45;;;1.10;99.90;;;;;;5034457;28;20057;-61
2022/01/10 05:55:38;;;;;;;42.60;23.40;;;1.10;99.90;;;;;;5034366;28;20022;-60
2022/01/10 05:58:04;;;;;;;41.28;23.77;;;1.10;99.90;;;;;;5034483;28;20040;-60
2022/01/10 06:00:31;;;;;;;37.85;22.02;;;1.10;99.90;;;;;;5034516;28;20028;-60
2022/01/10 06:02:56;;;;;;;34.65;23.10;;;1.10;99.90;;;;;;5034385;28;20110;-61
2022/01/10 06:05:24;;;;;;;43.13;23.80;;;1.20;99.90;;;;;;5033740;28;20037;-61
2022/01/10 06:07:49;;;;;;;39.90;23.52;;;1.20;99.90;;;;;;5034110;28;20026;-61
2022/01/10 06:10:15;;;;;;;30.85;18.42;;;1.20;99.90;;;;;;5058210;28;20032;-61
2022/01/10 06:12:41;;;;;;;26.17;16.65;;;1.20;99.90;;;;;;5039321;28;20100;-61
2022/01/10 06:15:07;;;;;;;33.88;20.05;;;1.30;99.90;;;;;;5048021;28;20073;-60
2022/01/10 06:17:33;;;;;;;37.92;21.02;;;1.30;99.90;;;;;;5036612;28;20046;-61
2022/01/10 06:19:59;;;;;;;28.40;17.08;;;1.40;99.90;;;;;;5049451;28;20113;-61
2022/01/10 06:22:25;;;;;;;29.17;17.80;;;1.40;99.90;;;;;;5033564;28;20025;-60
2022/01/10 06:24:50;;;;;;;25.05;16.58;;;1.40;99.90;;;;;;5033740;28;20033;-61
2022/01/10 06:27:16;;;;;;;24.40;14.68;;;1.50;99.90;;;;;;5033950;28;20116;-61
2022/01/10 06:29:41;;;;;;;24.00;13.90;;;1.50;99.90;;;;;;5032503;28;20030;-61
2022/01/10 06:32:07;;;;;;;26.05;14.77;;;1.60;99.90;;;;;;5033883;28;20152;-60
2022/01/10 06:34:32;;;;;;;34.50;20.45;;;1.60;99.90;;;;;;5033677;28;20044;-60
2022/01/10 06:36:59;;;;;;;32.80;20.40;;;1.60;99.90;;;;;;5049040;28;20473;-61
2022/01/10 06:39:25;;;;;;;27.08;17.80;;;1.60;99.90;;;;;;5033383;28;20025;-61
2022/01/10 06:41:50;;;;;;;26.45;15.30;;;1.60;99.90;;;;;;5033571;28;20041;-61
2022/01/10 06:44:16;;;;;;;31.50;16.80;;;1.70;99.90;;;;;;5033588;28;20021;-61
2022/01/10 06:46:41;;;;;;;33.72;17.30;;;1.70;99.90;;;;;;5033452;28;20029;-61
2022/01/10 06:49:07;;;;;;;43.13;22.25;;;1.60;99.90;;;;;;5033982;28;20028;-61
2022/01/10 06:51:32;;;;;;;31.77;17.88;;;1.60;99.90;;;;;;5033516;28;20034;-60
2022/01/10 06:53:58;;;;;;;37.25;20.83;;;1.60;99.90;;;;;;5033163;28;20029;-60
2022/01/10 06:56:23;;;;;;;44.85;25.17;;;1.60;99.90;;;;;;5033375;28;20367;-61
2022/01/10 06:58:49;;;;;;;35.13;21.67;;;1.50;99.90;;;;;;5033285;28;20033;-60
2022/01/10 07:01:17;;;;;;;34.40;19.00;;;1.50;99.90;;;;;;5033468;28;20025;-60
2022/01/10 07:03:44;;;;;;;24.08;16.33;;;1.50;99.90;;;;;;5033090;28;20025;-61
2022/01/10 07:06:10;;;;;;;19.42;13.73;;;1.60;99.90;;;;;;5033317;28;20024;-60
2022/01/10 07:08:58;;;;;;;20.95;12.98;;;1.60;99.90;;;;;;5032991;28;20037;-61
2022/01/10 07:11:24;;;;;;;24.83;15.15;;;1.70;99.90;;;;;;5033232;28;20493;-61
2022/01/10 07:13:50;;;;;;;19.88;14.00;;;1.70;99.90;;;;;;5032824;28;20071;-61
2022/01/10 07:16:16;;;;;;;26.58;15.35;;;1.70;99.90;;;;;;5039188;28;20025;-60
2022/01/10 07:18:41;;;;;;;40.08;23.90;;;1.70;99.90;;;;;;5052275;28;20033;-60
2022/01/10 07:21:07;;;;;;;35.28;22.38;;;1.70;99.90;;;;;;5052937;28;20476;-61
2022/01/10 07:23:32;;;;;;;39.58;22.13;;;1.70;99.90;;;;;;5052730;28;20078;-60
2022/01/10 07:25:58;;;;;;;38.67;22.67;;;1.70;99.90;;;;;;5052825;28;20060;-61
2022/01/10 07:28:24;;;;;;;39.40;22.50;;;1.60;99.90;;;;;;5052786;28;20039;-60
2022/01/10 07:30:49;;;;;;;42.13;23.33;;;1.60;99.90;;;;;;5052872;28;20435;-60
2022/01/10 07:33:16;;;;;;;42.35;23.35;;;1.50;99.90;;;;;;5052741;28;20029;-61
2022/01/10 07:35:41;;;;;;;40.72;21.05;;;1.50;99.90;;;;;;5052554;28;20032;-61
2022/01/10 07:38:07;;;;;;;42.60;21.10;;;1.40;99.90;;;;;;5048954;28;20025;-61
2022/01/10 07:40:32;;;;;;;33.65;18.90;;;1.40;99.90;;;;;;5045946;28;20028;-60
2022/01/10 07:42:58;;;;;;;24.85;16.27;;;1.40;99.90;;;;;;5048947;28;20021;-61
2022/01/10 07:45:24;;;;;;;41.20;22.13;;;1.40;99.90;;;;;;5048737;28;20108;-61
2022/01/10 07:47:50;;;;;;;46.95;23.95;;;1.50;99.90;;;;;;5048704;28;20025;-60
2022/01/10 07:50:15;;;;;;;37.60;21.92;;;1.50;99.90;;;;;;5051602;28;20025;-60
2022/01/10 07:52:41;;;;;;;28.73;17.20;;;1.50;99.90;;;;;;5051423;28;20021;-61
2022/01/10 07:55:07;;;;;;;23.13;16.15;;;1.50;99.90;;;;;;5051327;28;20385;-60
2022/01/10 07:57:33;;;;;;;26.65;14.55;;;1.50;99.90;;;;;;5049910;28;20029;-61
2022/01/10 07:59:58;;;;;;;35.20;19.25;;;1.60;99.90;;;;;;5050364;28;20067;-60
2022/01/10 08:02:25;;;;;;;44.35;23.38;;;1.60;99.90;;;;;;5049144;28;20029;-61
2022/01/10 08:04:51;;;;;;;42.40;23.17;;;1.60;99.90;;;;;;5051296;28;20064;-60
2022/01/10 08:07:17;;;;;;;43.42;22.77;;;1.60;99.90;;;;;;5051493;28;20052;-61
2022/01/10 08:09:43;;;;;;;35.80;22.25;;;1.60;99.90;;;;;;5048702;28;20036;-61
2022/01/10 08:12:09;;;;;;;41.30;21.65;;;1.50;99.90;;;;;;5050587;28;20071;-60
2022/01/10 08:14:35;;;;;;;36.22;22.52;;;1.50;99.90;;;;;;5049125;28;20040;-61
2022/01/10 08:17:00;;;;;;;34.55;20.33;;;1.50;99.90;;;;;;5047873;28;20061;-61
2022/01/10 08:19:32;;;;;;;30.70;18.20;;;1.50;99.90;;;;;;5051770;28;20546;-60
2022/01/10 08:22:28;;;;;;;38.53;22.80;;;1.50;99.90;;;;;;5052358;28;20017;-60
2022/01/10 08:24:53;;;;;;;35.97;21.10;;;1.60;99.90;;;;;;5051642;28;20075;-60
2022/01/10 08:27:19;;;;;;;41.72;22.00;;;1.60;99.90;;;;;;5047957;28;20039;-60
2022/01/10 08:29:46;;;;;;;41.03;23.30;;;1.60;99.90;;;;;;5027854;28;20075;-61
2022/01/10 08:32:11;;;;;;;39.67;22.38;;;1.60;99.90;;;;;;5033944;28;20033;-61
2022/01/10 08:34:37;;;;;;;39.40;21.77;;;1.60;99.90;;;;;;5044212;28;20060;-61
2022/01/10 08:37:03;;;;;;;34.25;21.05;;;1.60;99.90;;;;;;5055887;28;20025;-61
2022/01/10 08:39:28;;;;;;;40.10;21.90;;;1.60;99.90;;;;;;5055686;28;20028;-61
2022/01/10 08:41:54;;;;;;;41.95;23.17;;;1.60;99.90;;;;;;5055724;28;20021;-61
2022/01/10 08:44:19;;;;;;;41.95;23.33;;;1.60;99.90;;;;;;5055405;28;20025;-61
2022/01/10 08:46:46;;;;;;;38.53;21.65;;;1.70;99.90;;;;;;5055573;28;20013;-61
2022/01/10 08:49:13;;;;;;;38.35;22.20;;;1.70;99.90;;;;;;5055692;28;20047;-61
2022/01/10 08:51:42;;;;;;;44.05;22.70;;;1.70;99.90;;;;;;5054804;28;20029;-61
2022/01/10 08:54:08;;;;;;;32.90;19.70;;;1.70;99.90;;;;;;5055407;28;20032;-61
2022/01/10 08:56:34;;;;;;;38.83;22.38;;;1.70;99.90;;;;;;5055104;28;20025;-61
2022/01/10 08:59:00;;;;;;;42.13;22.80;;;1.80;99.90;;;;;;5055144;28;20041;-61
2022/01/10 09:01:26;;;;;;;43.03;24.30;;;1.80;99.90;;;;;;5054886;28;20481;-61
2022/01/10 09:03:52;;;;;;;38.80;21.30;;;1.70;99.90;;;;;;5054570;28;20477;-61
2022/01/10 09:06:18;;;;;;;42.95;23.05;;;1.70;99.90;;;;;;5054749;28;20032;-61
2022/01/10 09:08:46;;;;;;;34.38;22.40;;;1.70;99.90;;;;;;5055130;28;20032;-61
2022/01/10 09:11:22;;;;;;;45.05;24.67;;;1.70;99.90;;;;;;5054100;28;20052;-61
2022/01/10 09:13:48;;;;;;;42.55;23.15;;;1.70;99.90;;;;;;5054478;28;20021;-61
2022/01/10 09:16:28;;;;;;;43.53;24.35;;;1.70;99.90;;;;;;5054164;28;20055;-61
2022/01/10 09:18:54;;;;;;;40.13;24.08;;;1.70;99.90;;;;;;5054880;28;20075;-61
2022/01/10 09:21:19;;;;;;;45.70;26.10;;;1.60;99.90;;;;;;5051248;28;20400;-61
2022/01/10 09:23:45;;;;;;;45.25;24.95;;;1.60;99.90;;;;;;5054580;28;20033;-61
2022/01/10 09:26:10;;;;;;;50.08;25.42;;;1.60;99.90;;;;;;5052929;28;20037;-61
2022/01/10 09:28:36;;;;;;;48.00;24.15;;;1.70;99.90;;;;;;5051434;28;20028;-61
2022/01/10 09:31:02;;;;;;;36.63;21.80;;;1.80;99.90;;;;;;5048729;28;20061;-61
2022/01/10 09:33:27;;;;;;;45.15;25.33;;;1.90;99.90;;;;;;5042127;28;20055;-61
2022/01/10 09:35:53;;;;;;;52.33;26.50;;;1.90;99.90;;;;;;5042124;28;20028;-61
2022/01/10 09:38:19;;;;;;;48.05;25.10;;;2.00;99.90;;;;;;5047217;28;20032;-62
2022/01/10 09:40:44;;;;;;;39.53;25.15;;;2.00;99.90;;;;;;5040023;28;20071;-62
2022/01/10 09:43:10;;;;;;;40.92;26.48;;;2.00;99.90;;;;;;5040352;28;20072;-62
2022/01/10 09:45:47;;;;;;;47.88;26.60;;;2.10;99.90;;;;;;5035877;28;21411;-61
2022/01/10 09:48:13;;;;;;;45.05;26.48;;;2.10;99.90;;;;;;5035292;28;20061;-62
2022/01/10 09:50:39;;;;;;;48.60;27.45;;;2.10;99.90;;;;;;5050024;28;20485;-62
2022/01/10 09:53:05;;;;;;;49.95;28.08;;;2.10;99.90;;;;;;5046094;28;20036;-61
2022/01/10 09:55:33;;;;;;;41.42;24.65;;;2.20;99.90;;;;;;5047273;28;20021;-62
2022/01/10 09:57:58;;;;;;;46.90;26.70;;;2.30;99.90;;;;;;5050178;28;20024;-62
2022/01/10 10:00:24;;;;;;;38.53;24.30;;;2.30;99.90;;;;;;5035189;28;20428;-62
2022/01/10 10:02:50;;;;;;;45.30;25.65;;;2.30;99.90;;;;;;5030109;28;20453;-62
2022/01/10 10:05:30;;;;;;;46.92;24.98;;;2.40;99.90;;;;;;5032646;28;20032;-62
2022/01/10 10:07:57;;;;;;;35.78;23.80;;;2.60;99.90;;;;;;5051722;28;20025;-62
2022/01/10 10:10:23;;;;;;;38.30;25.23;;;2.80;99.90;;;;;;5049448;28;20029;-62
2022/01/10 10:12:50;;;;;;;38.70;23.73;;;3.20;99.90;;;;;;5051111;28;20029;-62
2022/01/10 10:15:21;;;;;;;40.38;24.08;;;3.40;99.90;;;;;;5050179;28;20056;-62
2022/01/10 10:17:47;;;;;;;46.90;25.52;;;3.60;99.90;;;;;;5046324;28;20037;-62
2022/01/10 10:20:16;;;;;;;39.13;21.67;;;3.80;99.90;;;;;;5044772;28;20072;-62
2022/01/10 10:22:46;;;;;;;34.83;21.63;;;3.90;99.90;;;;;;5043008;28;20036;-62
2022/01/10 10:25:13;;;;;;;39.70;21.98;;;4.10;99.90;;;;;;5046590;28;20028;-62
2022/01/10 10:27:43;;;;;;;34.15;21.10;;;4.30;99.90;;;;;;5031688;28;20029;-62
2022/01/10 10:30:31;;;;;;;35.40;20.27;;;4.30;99.90;;;;;;5050401;28;20542;-62
2022/01/10 10:33:23;;;;;;;32.28;19.88;;;4.20;99.90;;;;;;5048082;28;20115;-62
2022/01/10 10:36:03;;;;;;;31.63;19.83;;;4.30;99.90;;;;;;5028096;28;20041;-62
2022/01/10 10:38:29;;;;;;;34.20;19.95;;;4.30;99.90;;;;;;5030290;28;20064;-62
2022/01/10 10:41:00;;;;;;;29.38;18.98;;;4.40;99.90;;;;;;5045790;28;20385;-62
2022/01/10 10:43:25;;;;;;;35.30;20.25;;;4.60;99.90;;;;;;5046751;28;20024;-62
2022/01/10 10:45:51;;;;;;;32.42;18.90;;;4.80;99.90;;;;;;5034116;28;20083;-62
2022/01/10 10:48:17;;;;;;;33.53;18.58;;;4.90;99.90;;;;;;5049262;28;20500;-62
2022/01/10 10:50:45;;;;;;;37.47;19.60;;;4.80;99.90;;;;;;5046350;28;20554;-62
2022/01/10 10:53:14;;;;;;;32.00;19.25;;;4.70;99.90;;;;;;5046274;28;20037;-62
2022/01/10 10:55:42;;;;;;;33.47;19.63;;;4.60;99.90;;;;;;5032878;28;20112;-62
2022/01/10 10:58:09;;;;;;;32.03;18.63;;;4.60;99.90;;;;;;5030261;28;20064;-62
2022/01/10 11:00:35;;;;;;;35.70;21.05;;;4.70;99.90;;;;;;5033189;28;20124;-62
2022/01/10 11:03:01;;;;;;;30.77;18.92;;;5.20;99.90;;;;;;5030353;28;20041;-62
2022/01/10 11:05:28;;;;;;;32.58;19.25;;;5.80;99.90;;;;;;5030722;28;20033;-62
2022/01/10 11:07:54;;;;;;;35.67;19.92;;;6.10;99.90;;;;;;5029927;28;20029;-62
2022/01/10 11:10:20;;;;;;;32.55;19.23;;;6.30;99.90;;;;;;5030791;28;20470;-62
2022/01/10 11:12:53;;;;;;;30.63;17.52;;;6.40;99.90;;;;;;5034824;28;20082;-62
2022/01/10 11:15:19;;;;;;;32.17;19.00;;;6.50;99.90;;;;;;5051713;28;20489;-62
2022/01/10 11:17:44;;;;;;;30.27;18.65;;;6.50;99.60;;;;;;5051909;28;20044;-62
2022/01/10 11:20:10;;;;;;;30.33;17.70;;;6.50;99.70;;;;;;5051466;28;20033;-62
2022/01/10 11:22:48;;;;;;;29.25;17.83;;;6.80;98.90;;;;;;5052591;28;20024;-62
2022/01/10 11:25:22;;;;;;;29.73;16.63;;;7.30;97.80;;;;;;5059599;28;20107;-62
2022/01/10 11:27:50;;;;;;;25.02;15.75;;;7.70;97.40;;;;;;5072739;28;20027;-62
2022/01/10 11:30:24;;;;;;;25.00;15.68;;;8.40;97.50;;;;;;5072621;28;20093;-62
2022/01/10 11:32:57;;;;;;;20.73;13.65;;;9.10;95.80;;;;;;5072800;28;20036;-63
2022/01/10 11:35:43;;;;;;;22.05;14.55;;;9.60;95.00;;;;;;5072521;28;20028;-62
2022/01/10 11:38:42;;;;;;;28.05;16.33;;;10.00;93.50;;;;;;5072540;28;20025;-62
2022/01/10 11:41:37;;;;;;;25.42;16.50;;;10.20;91.70;;;;;;5072884;28;20025;-63
2022/01/10 11:44:12;;;;;;;21.27;13.55;;;10.10;89.60;;;;;;5072401;28;20054;-63
2022/01/10 11:46:46;;;;;;;20.95;14.10;;;9.80;89.60;;;;;;5071095;28;20107;-63
2022/01/10 11:49:18;;;;;;;18.50;12.77;;;9.90;89.70;;;;;;5072761;28;20021;-63
2022/01/10 11:51:46;;;;;;;17.95;12.18;;;10.30;90.20;;;;;;5071245;28;20067;-63
2022/01/10 11:54:39;;;;;;;21.15;14.73;;;11.20;90.50;;;;;;5051842;28;20055;-63
2022/01/10 11:57:16;;;;;;;21.23;12.95;;;11.80;82.90;;;;;;5051402;28;20033;-63
2022/01/10 12:00:20;;;;;;;;;;;;;;;;;;;;;
2022/01/10 12:02:46;;;;;;;18.27;13.70;;;12.60;81.30;;;;;;5051710;28;20029;-62
2022/01/10 12:05:57;;;;;;;20.52;12.82;;;13.20;74.20;;;;;;5056351;28;20056;-63
2022/01/10 12:08:43;;;;;;;18.15;13.88;;;13.70;74.20;;;;;;5051751;28;20547;-62
2022/01/10 12:11:09;;;;;;;15.05;11.75;;;14.40;70.10;;;;;;5056198;28;20041;-63
2022/01/10 12:13:34;;;;;;;15.90;12.70;;;14.60;69.30;;;;;;5056288;28;20029;-63
2022/01/10 12:16:00;;;;;;;16.38;11.57;;;14.60;66.10;;;;;;5055824;28;20047;-63
2022/01/10 12:18:26;;;;;;;16.95;11.45;;;14.80;67.50;;;;;;5055929;28;20056;-63
2022/01/10 12:20:52;;;;;;;18.20;11.30;;;15.50;65.60;;;;;;5049650;28;20063;-63
2022/01/10 12:23:18;;;;;;;16.17;11.70;;;16.20;63.10;;;;;;5054874;28;20508;-63
2022/01/10 12:28:38;;;;;;;15.40;11.13;;;16.00;60.40;;;;;;5053232;28;20028;-63
2022/01/10 12:31:05;;;;;;;13.45;10.02;;;16.20;59.70;;;;;;5054819;28;20527;-60
2022/01/10 12:33:31;;;;;;;16.85;12.05;;;16.60;60.70;;;;;;5054270;28;20439;-60
2022/01/10 12:35:57;;;;;;;15.95;11.23;;;16.50;57.10;;;;;;5052253;28;20090;-60
2022/01/10 12:38:24;;;;;;;14.65;10.32;;;15.90;58.30;;;;;;5050848;28;20025;-60
2022/01/10 12:40:51;;;;;;;14.00;10.65;;;15.70;59.10;;;;;;5055837;28;20032;-60
2022/01/10 12:43:16;;;;;;;13.60;10.15;;;15.70;59.70;;;;;;5055602;28;20033;-61
2022/01/10 12:45:42;;;;;;;13.88;10.93;;;15.70;59.00;;;;;;5055779;28;20385;-60
2022/01/10 12:48:45;;;;;;;14.48;10.55;;;15.80;59.20;;;;;;5055411;28;20035;-60
2022/01/10 12:51:11;;;;;;;16.50;11.07;;;16.20;59.30;;;;;;5055674;28;20078;-61
2022/01/10 12:53:37;;;;;;;13.82;9.68;;;16.40;57.20;;;;;;5055462;28;20021;-60
2022/01/10 12:56:03;;;;;;;10.15;8.23;;;16.70;57.80;;;;;;5055692;28;20033;-60